KBCT/BCT METAR and TAF weather

Enter ICAO airport designator
Station Type Date Time Source
KBCT METAR 2019/02/23 16:50 UTC NOAA

KBCT 231650Z 14010G20KT 10SM BKN060 29/21 A3016


Station Type Date Time Source
KBCT Decoded METAR 2019/02/23 16:50 UTC NOAA

Boca Raton, Boca Raton Airport, FL, United States (KBCT) 26-22-43N 080-06-28W
Feb 23, 2019 - 11:50 AM EST / 2019.02.23 1650 UTC
Wind: from the SE (140 degrees) at 12 MPH (10 KT) gusting to 23 MPH (20 KT):0
Visibility: 10 mile(s):0
Sky conditions: mostly cloudy
Temperature: 84 F (29 C)
Dew Point: 69 F (21 C)
Relative Humidity: 62%
Pressure (altimeter): 30.16 in. Hg (1021 hPa)
ob: KBCT 231650Z 14010G20KT 10SM BKN060 29/21 A3016
cycle: 17

Station Type Date Time Source
KBCT TAF UTC NOAA

Error!


Example: see airport list